createdAt,value
2022-08-30T00:09:09.457Z,15.80
2022-08-30T00:11:39.084Z,15.80
2022-08-30T00:14:08.864Z,15.70
2022-08-30T00:16:38.863Z,15.70
2022-08-30T00:19:08.184Z,15.80
2022-08-30T00:21:36.021Z,15.60
2022-08-30T01:18:44.691Z,16.30
2022-08-30T01:21:20.883Z,16.30
2022-08-30T01:23:49.745Z,16.30
2022-08-30T01:26:17.039Z,16.30
2022-08-30T01:28:49.928Z,16.30
2022-08-30T01:31:16.798Z,16.30
2022-08-30T01:33:44.040Z,16.30
2022-08-30T02:30:54.058Z,15.70
2022-08-30T02:33:21.383Z,15.70
2022-08-30T02:35:48.141Z,15.80
2022-08-30T02:38:15.068Z,15.80
2022-08-30T02:40:42.155Z,15.80
2022-08-30T02:43:09.334Z,15.70
2022-08-30T02:45:36.584Z,15.70
2022-08-30T05:18:31.899Z,14.90
2022-08-30T05:21:10.535Z,14.80
2022-08-30T05:23:39.085Z,14.80
2022-08-30T05:26:27.695Z,14.80
2022-08-30T05:28:55.411Z,14.80
2022-08-30T05:31:26.333Z,14.90
2022-08-30T06:06:21.011Z,16.10
2022-08-30T06:08:50.448Z,16.20
2022-08-30T06:11:23.116Z,16.30
2022-08-30T06:13:54.979Z,16.50
2022-08-30T06:16:27.203Z,16.50
2022-08-30T06:18:59.089Z,16.60
2022-08-30T07:05:49.599Z,18.60
2022-08-30T07:08:17.743Z,18.80
2022-08-30T07:10:44.911Z,18.80
2022-08-30T07:13:13.018Z,18.80
2022-08-30T07:15:42.720Z,18.80
2022-08-30T07:18:29.010Z,18.80
2022-08-30T07:20:56.566Z,18.70
2022-08-30T07:28:23.808Z,18.90
2022-08-30T07:30:50.886Z,19.00
2022-08-30T07:33:17.856Z,19.10
2022-08-30T07:35:44.816Z,19.20
2022-08-30T07:38:14.785Z,19.20
2022-08-30T07:40:44.398Z,19.20
2022-08-30T07:43:12.280Z,19.10
2022-08-30T08:03:46.355Z,18.40
2022-08-30T08:06:15.479Z,18.40
2022-08-30T08:08:48.236Z,18.50
2022-08-30T08:11:22.163Z,18.70
2022-08-30T08:13:54.390Z,18.70
2022-08-30T08:16:29.163Z,18.80
2022-08-30T08:37:18.410Z,19.40
2022-08-30T08:39:48.074Z,19.50
2022-08-30T08:42:49.709Z,19.70
2022-08-30T08:45:32.255Z,19.70
2022-08-30T08:48:04.469Z,19.90
2022-08-30T08:50:32.589Z,20.00
2022-08-30T08:53:46.234Z,20.10
2022-08-30T09:14:02.142Z,21.00
2022-08-30T09:16:51.064Z,20.70
2022-08-30T09:19:30.237Z,20.40
2022-08-30T09:22:28.004Z,20.40
2022-08-30T09:25:00.125Z,20.50
2022-08-30T09:27:32.496Z,20.50
2022-08-30T09:30:04.417Z,20.60
2022-08-30T09:38:23.737Z,21.40
2022-08-30T09:40:53.131Z,21.90
2022-08-30T09:43:34.240Z,22.40
2022-08-30T09:46:01.811Z,22.60
2022-08-30T09:48:43.707Z,22.70
2022-08-30T09:51:12.719Z,23.00
2022-08-30T09:59:55.707Z,23.90
2022-08-30T10:02:52.949Z,23.90
2022-08-30T10:05:39.128Z,23.70
2022-08-30T10:08:34.440Z,23.70
2022-08-30T10:11:37.091Z,23.60
2022-08-30T10:30:05.754Z,24.00
2022-08-30T10:32:54.670Z,24.90
2022-08-30T10:35:24.386Z,24.90
2022-08-30T10:38:03.867Z,25.20
2022-08-30T10:40:55.846Z,25.50
2022-08-30T10:43:52.623Z,25.60
2022-08-30T10:46:32.787Z,25.50
2022-08-30T11:10:09.682Z,24.20
2022-08-30T11:13:00.699Z,24.50
2022-08-30T11:15:31.081Z,25.00
2022-08-30T11:18:10.373Z,25.60
2022-08-30T11:20:43.606Z,25.50
2022-08-30T11:23:33.069Z,25.40
2022-08-30T11:26:13.977Z,25.30
2022-08-30T11:34:46.221Z,25.00
2022-08-30T11:37:35.351Z,25.20
2022-08-30T11:40:15.662Z,25.10
2022-08-30T11:42:46.613Z,25.10
2022-08-30T11:45:26.646Z,25.30
2022-08-30T11:48:00.759Z,25.10
2022-08-30T11:53:50.296Z,24.10
2022-08-30T11:56:26.684Z,23.90
2022-08-30T11:59:25.923Z,24.00
2022-08-30T12:01:53.188Z,24.00
2022-08-30T12:04:20.599Z,23.60
2022-08-30T12:06:59.315Z,23.30
2022-08-30T12:09:28.759Z,23.20
2022-08-30T12:15:47.035Z,23.30
2022-08-30T12:18:31.586Z,23.20
2022-08-30T12:21:21.439Z,23.30
2022-08-30T12:24:20.526Z,23.10
2022-08-30T12:26:50.768Z,23.00
2022-08-30T12:29:21.145Z,23.10
2022-08-30T12:45:17.368Z,23.40
2022-08-30T12:47:46.134Z,22.20
2022-08-30T12:50:18.884Z,21.80
2022-08-30T12:52:57.998Z,21.60
2022-08-30T12:55:30.525Z,21.50
2022-08-30T12:58:04.921Z,21.50
2022-08-30T13:08:21.468Z,20.70
2022-08-30T13:11:08.490Z,20.70
2022-08-30T13:13:52.382Z,20.70
2022-08-30T13:16:40.326Z,20.80
2022-08-30T13:19:32.221Z,20.90
2022-08-30T13:22:00.610Z,21.00
2022-08-30T13:24:27.690Z,21.10
2022-08-30T13:52:53.603Z,20.70
2022-08-30T13:55:21.195Z,20.70
2022-08-30T13:57:56.276Z,20.70
2022-08-30T14:00:24.597Z,20.70
2022-08-30T14:02:55.670Z,20.60
2022-08-30T14:05:48.336Z,20.50
2022-08-30T15:00:34.649Z,20.00
2022-08-30T15:03:04.265Z,20.10
2022-08-30T15:05:31.743Z,20.10
2022-08-30T15:07:58.687Z,20.10
2022-08-30T15:10:25.906Z,20.00
2022-08-30T15:12:53.741Z,19.90
2022-08-30T15:15:21.479Z,19.90
2022-08-30T15:38:25.481Z,19.70
2022-08-30T15:40:52.471Z,19.60
2022-08-30T15:43:19.422Z,19.50
2022-08-30T15:45:46.910Z,19.60
2022-08-30T15:48:13.779Z,19.60
2022-08-30T15:50:41.055Z,19.50
2022-08-30T15:53:09.429Z,19.50
2022-08-30T16:13:46.913Z,19.30
2022-08-30T16:16:22.021Z,19.20
2022-08-30T16:18:54.113Z,19.20
2022-08-30T16:21:26.288Z,19.10
2022-08-30T16:23:57.935Z,19.00
2022-08-30T16:26:26.259Z,19.00
2022-08-30T18:35:18.195Z,17.60
2022-08-30T18:37:45.521Z,17.50
2022-08-30T18:40:18.793Z,17.50
2022-08-30T18:42:47.179Z,17.50
2022-08-30T18:45:15.092Z,17.50
2022-08-30T18:47:43.067Z,17.50
2022-08-30T18:50:13.549Z,17.50
2022-08-30T18:57:47.738Z,17.20
2022-08-30T19:00:16.648Z,17.20
2022-08-30T19:02:45.044Z,17.10
2022-08-30T19:05:15.616Z,17.10
2022-08-30T19:07:44.155Z,17.10
2022-08-30T19:10:12.843Z,17.00
2022-08-30T19:12:40.150Z,16.90
2022-08-30T19:20:00.675Z,16.90
2022-08-30T19:22:39.867Z,16.80
2022-08-30T19:25:17.752Z,16.60
2022-08-30T19:27:45.049Z,16.60
2022-08-30T19:30:23.069Z,16.60
2022-08-30T19:32:53.353Z,16.60
2022-08-30T19:38:03.210Z,16.60
2022-08-30T19:40:30.088Z,16.40
2022-08-30T19:42:57.785Z,16.30
2022-08-30T19:45:25.945Z,16.30
2022-08-30T19:47:53.288Z,16.30
2022-08-30T19:50:22.022Z,16.30
2022-08-30T19:52:54.305Z,16.20
2022-08-30T20:01:12.191Z,16.10
2022-08-30T20:03:47.614Z,16.00
2022-08-30T20:06:19.575Z,16.00
2022-08-30T20:08:47.042Z,16.10
2022-08-30T20:11:16.216Z,16.20
2022-08-30T20:13:43.399Z,16.30
2022-08-30T20:16:12.393Z,16.30
2022-08-30T20:23:28.315Z,16.50
2022-08-30T20:25:56.442Z,16.60
2022-08-30T20:28:25.789Z,16.60
2022-08-30T20:30:55.015Z,16.60
2022-08-30T20:33:24.256Z,16.60
2022-08-30T20:35:51.892Z,16.60
2022-08-30T20:38:20.744Z,16.60
2022-08-30T20:44:39.642Z,16.50
2022-08-30T20:47:06.651Z,16.60
2022-08-30T20:49:37.177Z,16.50
2022-08-30T20:52:05.100Z,16.50
2022-08-30T20:54:31.905Z,16.60
2022-08-30T20:56:59.205Z,16.60
2022-08-30T20:59:27.291Z,16.60
2022-08-30T21:07:20.156Z,16.60
2022-08-30T21:09:47.243Z,16.70
2022-08-30T21:12:14.441Z,16.60
2022-08-30T21:14:41.479Z,16.70
2022-08-30T21:17:08.793Z,16.60
2022-08-30T21:19:35.984Z,16.60
2022-08-30T21:22:03.305Z,16.60
2022-08-30T21:27:17.683Z,16.60
2022-08-30T21:29:45.476Z,16.60
2022-08-30T21:32:14.347Z,16.60
2022-08-30T21:35:01.460Z,16.60
2022-08-30T21:37:31.080Z,16.60
2022-08-30T21:40:00.561Z,16.60
2022-08-30T21:42:27.390Z,16.50
2022-08-30T21:47:32.857Z,16.50
2022-08-30T21:49:59.516Z,16.50
2022-08-30T21:52:27.017Z,16.50
2022-08-30T21:54:53.946Z,16.40
2022-08-30T21:57:21.066Z,16.40
2022-08-30T21:59:47.794Z,16.40
2022-08-30T22:02:14.938Z,16.30
2022-08-30T22:09:45.785Z,16.30
2022-08-30T22:12:12.537Z,16.40
2022-08-30T22:14:40.043Z,16.30
2022-08-30T22:17:06.888Z,16.30
2022-08-30T22:19:34.056Z,16.30
2022-08-30T22:22:01.822Z,16.00
2022-08-30T22:24:32.784Z,16.10
2022-08-30T22:32:05.530Z,16.00
2022-08-30T22:34:32.669Z,16.00
2022-08-30T22:36:59.923Z,15.90
2022-08-30T22:39:27.500Z,16.00
2022-08-30T22:41:54.547Z,15.90
2022-08-30T22:44:21.941Z,15.90
2022-08-30T22:46:48.896Z,15.80
2022-08-30T22:54:21.496Z,15.80
2022-08-30T22:56:49.843Z,15.80
2022-08-30T22:59:16.981Z,15.70
2022-08-30T23:01:44.183Z,15.70
2022-08-30T23:04:11.560Z,15.70
2022-08-30T23:06:39.465Z,15.60
2022-08-30T23:09:07.680Z,15.60
2022-08-30T23:16:35.995Z,15.60
2022-08-30T23:19:04.103Z,15.50
2022-08-30T23:21:31.566Z,15.50
2022-08-30T23:24:17.431Z,15.50
2022-08-30T23:27:04.320Z,15.50
2022-08-30T23:29:51.095Z,15.50
2022-08-30T23:35:35.022Z,15.40
2022-08-30T23:38:23.404Z,15.40
2022-08-30T23:41:09.000Z,15.40
2022-08-30T23:43:54.707Z,15.40
2022-08-30T23:46:40.720Z,15.40
2022-08-30T23:49:26.666Z,15.40
2022-08-30T23:57:37.060Z,15.40
